createdAt,value
2022-09-07T00:02:14.882Z,22.93
2022-09-07T00:04:44.739Z,22.92
2022-09-07T00:07:17.184Z,22.88
2022-09-07T00:09:46.961Z,22.86
2022-09-07T00:12:16.914Z,22.86
2022-09-07T00:14:46.817Z,22.84
2022-09-07T00:17:16.648Z,22.82
2022-09-07T00:19:46.643Z,22.78
2022-09-07T00:22:19.170Z,22.77
2022-09-07T00:24:49.011Z,22.73
2022-09-07T00:27:18.884Z,22.72
2022-09-07T00:29:48.706Z,22.67
2022-09-07T00:32:18.695Z,22.66
2022-09-07T00:34:52.103Z,22.62
2022-09-07T00:37:24.652Z,22.57
2022-09-07T00:39:55.611Z,22.55
2022-09-07T00:42:25.650Z,22.55
2022-09-07T00:45:15.361Z,22.48
2022-09-07T00:47:53.463Z,22.48
2022-09-07T00:50:26.667Z,22.47
2022-09-07T00:53:11.322Z,22.47
2022-09-07T00:55:47.025Z,22.49
2022-09-07T00:58:17.176Z,22.49
2022-09-07T01:00:49.491Z,22.47
2022-09-07T01:03:21.389Z,22.46
2022-09-07T01:05:56.611Z,22.46
2022-09-07T01:08:29.885Z,22.47
2022-09-07T01:11:01.189Z,22.43
2022-09-07T01:13:33.034Z,22.41
2022-09-07T01:16:12.672Z,22.42
2022-09-07T01:18:51.683Z,22.37
2022-09-07T01:21:28.134Z,22.35
2022-09-07T01:24:21.923Z,22.36
2022-09-07T01:27:36.855Z,22.37
2022-09-07T01:30:09.844Z,22.36
2022-09-07T01:33:00.211Z,22.33
2022-09-07T01:35:39.210Z,22.30
2022-09-07T01:38:18.181Z,22.29
2022-09-07T01:40:56.267Z,22.26
2022-09-07T01:43:36.856Z,22.23
2022-09-07T01:46:12.024Z,22.23
2022-09-07T01:48:43.725Z,22.20
2022-09-07T01:51:16.139Z,22.19
2022-09-07T01:53:52.969Z,22.18
2022-09-07T01:56:27.430Z,22.18
2022-09-07T01:59:06.420Z,22.18
2022-09-07T02:01:42.579Z,22.17
2022-09-07T02:04:15.728Z,22.13
2022-09-07T02:06:51.474Z,22.08
2022-09-07T02:09:28.360Z,22.06
2022-09-07T02:11:58.518Z,22.05
2022-09-07T02:14:37.228Z,21.99
2022-09-07T02:17:14.935Z,21.98
2022-09-07T02:19:51.273Z,21.95
2022-09-07T02:22:29.457Z,21.93
2022-09-07T02:25:03.701Z,21.92
2022-09-07T02:27:41.610Z,21.91
2022-09-07T02:30:15.919Z,21.90
2022-09-07T02:32:48.902Z,21.88
2022-09-07T02:35:19.055Z,21.90
2022-09-07T02:37:51.360Z,21.84
2022-09-07T02:40:21.550Z,21.84
2022-09-07T02:42:52.019Z,21.81
2022-09-07T02:45:24.828Z,21.81
2022-09-07T02:48:12.882Z,21.81
2022-09-07T02:50:52.955Z,21.80
2022-09-07T02:53:54.329Z,21.80
2022-09-07T02:56:38.147Z,21.80
2022-09-07T02:59:16.973Z,21.78
2022-09-07T03:01:59.823Z,21.76
2022-09-07T03:04:43.500Z,21.76
2022-09-07T03:07:17.046Z,21.76
2022-09-07T03:09:51.221Z,21.75
2022-09-07T03:12:21.120Z,21.72
2022-09-07T03:14:51.235Z,21.70
2022-09-07T03:17:23.643Z,21.65
2022-09-07T03:19:53.467Z,21.64
2022-09-07T03:22:23.300Z,21.64
2022-09-07T03:24:53.128Z,21.63
2022-09-07T03:27:22.925Z,21.62
2022-09-07T03:29:52.819Z,21.61
2022-09-07T03:32:25.227Z,21.58
2022-09-07T03:34:55.248Z,21.57
2022-09-07T03:37:28.127Z,21.58
2022-09-07T03:39:58.190Z,21.56
2022-09-07T03:42:28.072Z,21.56
2022-09-07T03:44:57.904Z,21.53
2022-09-07T03:47:30.560Z,21.51
2022-09-07T03:50:00.417Z,21.50
2022-09-07T03:52:30.255Z,21.47
2022-09-07T03:55:00.221Z,21.46
2022-09-07T03:57:30.077Z,21.43
2022-09-07T04:00:00.002Z,21.40
2022-09-07T04:02:32.456Z,21.38
2022-09-07T04:05:02.360Z,21.36
2022-09-07T04:07:32.216Z,21.33
2022-09-07T04:10:02.017Z,21.33
2022-09-07T04:12:31.847Z,21.29
2022-09-07T04:15:01.655Z,21.27
2022-09-07T04:17:34.071Z,21.25
2022-09-07T04:20:04.697Z,21.24
2022-09-07T04:22:34.539Z,21.18
2022-09-07T04:25:04.417Z,21.14
2022-09-07T04:27:34.207Z,21.11
2022-09-07T04:30:04.089Z,21.11
2022-09-07T04:33:00.360Z,21.08
2022-09-07T04:35:30.214Z,21.10
2022-09-07T04:38:00.212Z,21.11
2022-09-07T04:40:30.137Z,21.09
2022-09-07T04:43:05.506Z,21.04
2022-09-07T04:45:35.342Z,21.06
2022-09-07T04:48:08.262Z,21.05
2022-09-07T04:50:38.240Z,21.05
2022-09-07T04:53:08.096Z,21.04
2022-09-07T04:55:37.988Z,21.07
2022-09-07T04:58:07.903Z,21.06
2022-09-07T05:00:39.422Z,21.08
2022-09-07T05:03:12.048Z,21.08
2022-09-07T05:05:41.975Z,21.13
2022-09-07T05:08:12.060Z,21.12
2022-09-07T05:10:41.917Z,21.15
2022-09-07T05:13:11.741Z,21.13
2022-09-07T05:15:41.645Z,21.16
2022-09-07T05:18:14.251Z,21.24
2022-09-07T05:20:44.321Z,21.31
2022-09-07T05:23:14.278Z,21.34
2022-09-07T05:25:46.696Z,21.35
2022-09-07T05:28:19.395Z,21.44
2022-09-07T05:36:33.458Z,21.69
2022-09-07T05:39:03.289Z,21.72
2022-09-07T05:41:33.128Z,21.77
2022-09-07T05:46:54.960Z,21.86
2022-09-07T05:49:27.394Z,21.92
2022-09-07T05:51:57.276Z,21.91
2022-09-07T05:54:27.098Z,21.98
2022-09-07T05:56:58.094Z,22.02
2022-09-07T05:59:28.011Z,22.09
2022-09-07T06:01:57.937Z,22.15
2022-09-07T06:04:30.478Z,22.18
2022-09-07T06:12:43.428Z,22.30
2022-09-07T06:15:16.990Z,22.39
2022-09-07T06:17:46.896Z,22.44
2022-09-07T06:20:19.407Z,22.55
2022-09-07T06:22:49.242Z,22.62
2022-09-07T06:25:19.241Z,22.70
2022-09-07T06:27:52.474Z,22.80
2022-09-07T06:30:22.533Z,22.81
2022-09-07T06:32:52.800Z,22.87
2022-09-07T06:35:25.392Z,22.95
2022-09-07T06:37:55.255Z,23.06
2022-09-07T06:40:25.669Z,23.07
2022-09-07T06:42:55.544Z,23.10
2022-09-07T06:45:26.231Z,23.12
2022-09-07T06:47:59.797Z,23.19
2022-09-07T06:50:32.396Z,23.28
2022-09-07T06:55:52.044Z,23.55
2022-09-07T06:58:23.170Z,23.51
2022-09-07T07:00:56.929Z,23.53
2022-09-07T07:03:27.166Z,23.52
2022-09-07T07:06:00.343Z,23.33
2022-09-07T07:08:30.475Z,23.34
2022-09-07T07:11:05.100Z,23.42
2022-09-07T07:13:34.977Z,23.33
2022-09-07T07:16:06.069Z,23.25
2022-09-07T07:18:36.909Z,23.31
2022-09-07T07:21:11.941Z,23.48
2022-09-07T07:23:42.387Z,23.66
2022-09-07T07:26:15.711Z,23.83
2022-09-07T07:29:03.825Z,23.98
2022-09-07T07:31:36.316Z,24.10
2022-09-07T07:34:06.468Z,24.05
2022-09-07T07:36:38.892Z,23.98
2022-09-07T07:42:03.251Z,24.17
2022-09-07T07:44:35.274Z,24.29
2022-09-07T07:47:05.252Z,24.40
2022-09-07T07:49:35.071Z,24.48
2022-09-07T07:54:58.301Z,24.49
2022-09-07T07:57:28.148Z,24.60
2022-09-07T07:59:58.671Z,24.79
2022-09-07T08:02:29.107Z,25.00
2022-09-07T08:04:58.933Z,25.14
2022-09-07T08:07:31.338Z,25.15
2022-09-07T08:10:01.118Z,25.09
2022-09-07T08:12:31.352Z,24.98
2022-09-07T08:15:01.245Z,24.96
2022-09-07T08:17:31.928Z,24.98
2022-09-07T08:20:01.650Z,24.92
2022-09-07T08:22:34.956Z,24.98
2022-09-07T08:25:05.361Z,25.07
2022-09-07T08:27:35.153Z,25.17
2022-09-07T08:30:05.105Z,25.34
2022-09-07T08:32:34.833Z,25.46
2022-09-07T08:35:04.753Z,25.55
2022-09-07T08:37:37.046Z,25.66
2022-09-07T08:40:07.402Z,25.85
2022-09-07T08:42:51.926Z,25.93
2022-09-07T08:45:30.349Z,25.94
2022-09-07T08:48:00.814Z,26.06
2022-09-07T08:50:35.369Z,25.97
2022-09-07T08:53:15.259Z,26.17
2022-09-07T08:55:52.408Z,26.29
2022-09-07T08:58:48.150Z,26.39
2022-09-07T09:01:32.277Z,26.58
2022-09-07T09:04:19.409Z,26.79
2022-09-07T09:07:05.894Z,26.89
2022-09-07T09:09:53.527Z,27.03
2022-09-07T09:12:37.493Z,27.00
2022-09-07T09:15:18.451Z,27.02
2022-09-07T09:17:55.453Z,27.17
2022-09-07T09:20:33.919Z,27.16
2022-09-07T09:23:12.373Z,27.20
2022-09-07T09:25:53.837Z,27.27
2022-09-07T09:28:28.814Z,27.44
2022-09-07T09:31:01.649Z,27.60
2022-09-07T09:33:31.899Z,27.73
2022-09-07T09:36:04.978Z,27.80
2022-09-07T09:38:37.411Z,28.01
2022-09-07T09:41:11.895Z,28.26
2022-09-07T09:43:46.234Z,28.45
2022-09-07T09:46:22.269Z,28.63
2022-09-07T09:49:03.573Z,28.79
2022-09-07T09:54:29.073Z,29.06
2022-09-07T09:57:01.681Z,29.13
2022-09-07T10:05:29.973Z,29.55
2022-09-07T10:08:02.711Z,29.73
2022-09-07T10:10:32.961Z,30.11
2022-09-07T10:13:08.786Z,30.52
2022-09-07T10:15:41.035Z,30.76
2022-09-07T10:18:21.460Z,30.94
2022-09-07T10:20:51.789Z,30.98
2022-09-07T10:23:25.402Z,30.95
2022-09-07T10:25:56.477Z,30.91
2022-09-07T10:29:06.544Z,30.53
2022-09-07T10:31:24.662Z,30.52
2022-09-07T10:37:04.578Z,30.82
2022-09-07T10:39:38.599Z,31.29
2022-09-07T10:42:21.476Z,31.78
2022-09-07T10:45:05.957Z,32.15
2022-09-07T10:47:48.033Z,32.59
2022-09-07T10:50:27.440Z,32.53
2022-09-07T10:53:36.996Z,31.64
2022-09-07T10:56:08.129Z,30.66
2022-09-07T10:59:05.116Z,29.98
2022-09-07T11:01:52.813Z,29.43
2022-09-07T11:04:39.947Z,29.05
2022-09-07T11:07:23.245Z,28.74
2022-09-07T11:10:02.336Z,28.51
2022-09-07T11:12:35.080Z,28.33
2022-09-07T11:15:22.484Z,28.11
2022-09-07T11:18:01.091Z,27.98
2022-09-07T11:20:35.574Z,27.91
2022-09-07T11:23:15.686Z,27.76
2022-09-07T11:25:55.341Z,27.71
2022-09-07T11:28:31.025Z,27.65
2022-09-07T11:31:05.273Z,27.58
2022-09-07T11:36:53.920Z,27.49
2022-09-07T11:39:29.272Z,27.49
2022-09-07T11:42:42.850Z,27.59
2022-09-07T11:44:58.630Z,27.70
2022-09-07T11:47:33.284Z,27.81
2022-09-07T11:50:06.067Z,28.00
2022-09-07T11:52:41.644Z,28.58
2022-09-07T11:55:15.704Z,29.06
2022-09-07T11:58:02.873Z,29.51
2022-09-07T12:00:43.085Z,29.76
2022-09-07T12:03:40.783Z,29.55
2022-09-07T12:06:40.260Z,29.41
2022-09-07T12:09:29.422Z,29.65
2022-09-07T12:12:18.460Z,29.47
2022-09-07T12:15:00.662Z,29.19
2022-09-07T12:17:42.234Z,28.74
2022-09-07T12:20:19.740Z,28.52
2022-09-07T12:23:07.089Z,28.40
2022-09-07T12:25:39.512Z,28.27
2022-09-07T12:28:21.831Z,28.15
2022-09-07T12:31:00.808Z,28.12
2022-09-07T12:33:36.651Z,28.12
2022-09-07T12:36:44.995Z,28.17
2022-09-07T12:39:25.166Z,28.28
2022-09-07T12:42:38.943Z,28.37
2022-09-07T12:45:38.773Z,28.37
2022-09-07T12:48:21.266Z,28.33
2022-09-07T12:50:59.517Z,28.31
2022-09-07T12:53:39.093Z,28.28
2022-09-07T12:56:22.538Z,28.19
2022-09-07T12:59:17.488Z,28.12
2022-09-07T13:02:00.418Z,28.04
2022-09-07T13:04:41.162Z,27.97
2022-09-07T13:08:01.716Z,27.88
2022-09-07T13:10:40.112Z,27.86
2022-09-07T13:14:02.586Z,27.79
2022-09-07T13:17:15.876Z,27.77
2022-09-07T13:19:52.363Z,27.70
2022-09-07T13:22:51.974Z,27.65
2022-09-07T13:25:50.607Z,27.72
2022-09-07T13:28:43.331Z,27.63
2022-09-07T13:31:32.299Z,27.61
2022-09-07T13:34:48.535Z,27.53
2022-09-07T13:37:22.402Z,27.59
2022-09-07T13:39:55.617Z,27.59
2022-09-07T13:42:28.460Z,27.65
2022-09-07T13:45:00.287Z,27.66
2022-09-07T13:47:43.507Z,27.71
2022-09-07T13:50:38.713Z,27.73
2022-09-07T13:53:25.417Z,27.79
2022-09-07T13:56:05.474Z,27.82
2022-09-07T13:58:38.551Z,27.84
2022-09-07T14:01:16.764Z,27.82
2022-09-07T14:03:51.737Z,27.84
2022-09-07T14:06:38.525Z,27.82
2022-09-07T14:09:16.145Z,27.86
2022-09-07T14:11:48.131Z,27.85
2022-09-07T14:14:20.210Z,27.93
2022-09-07T14:16:52.975Z,27.98
2022-09-07T14:19:26.334Z,28.01
2022-09-07T14:22:03.929Z,28.05
2022-09-07T14:24:36.772Z,28.07
2022-09-07T14:27:08.321Z,28.06
2022-09-07T14:29:39.940Z,28.05
2022-09-07T14:32:16.390Z,28.03
2022-09-07T14:34:47.663Z,28.05
2022-09-07T14:37:22.398Z,27.98
2022-09-07T14:39:54.093Z,27.96
2022-09-07T14:42:26.520Z,27.93
2022-09-07T14:45:21.244Z,27.90
2022-09-07T14:47:52.567Z,27.87
2022-09-07T14:50:25.581Z,27.84
2022-09-07T14:55:50.942Z,27.84
2022-09-07T14:58:26.675Z,27.78
2022-09-07T15:04:02.243Z,27.86
2022-09-07T15:09:39.926Z,27.83
2022-09-07T15:12:29.942Z,27.82
2022-09-07T15:15:12.988Z,27.79
2022-09-07T15:17:43.499Z,27.83
2022-09-07T15:20:39.768Z,27.79
2022-09-07T15:23:13.286Z,27.80
2022-09-07T15:25:50.687Z,27.85
2022-09-07T15:34:12.727Z,27.91
2022-09-07T15:36:44.589Z,27.96
2022-09-07T15:39:20.482Z,27.90
2022-09-07T15:41:53.436Z,27.85
2022-09-07T15:44:26.558Z,27.86
2022-09-07T15:49:51.404Z,27.86
2022-09-07T15:52:21.575Z,27.85
2022-09-07T15:54:51.355Z,27.84
2022-09-07T16:00:15.345Z,27.83
2022-09-07T16:05:35.396Z,27.87
2022-09-07T16:11:04.290Z,27.83
2022-09-07T16:13:37.433Z,27.79
2022-09-07T16:16:08.608Z,27.76
2022-09-07T16:18:39.520Z,27.75
2022-09-07T16:21:12.268Z,27.70
2022-09-07T16:23:44.335Z,27.68
2022-09-07T16:26:14.726Z,27.67
2022-09-07T16:28:50.071Z,27.63
2022-09-07T16:31:22.269Z,27.62
2022-09-07T16:33:52.353Z,27.59
2022-09-07T16:36:23.737Z,27.58
2022-09-07T16:38:59.173Z,27.56
2022-09-07T16:41:31.770Z,27.55
2022-09-07T16:44:04.585Z,27.55
2022-09-07T16:46:35.404Z,27.56
2022-09-07T16:49:05.619Z,27.54
2022-09-07T16:51:35.836Z,27.53
2022-09-07T16:54:06.019Z,27.52
2022-09-07T16:56:39.091Z,27.50
2022-09-07T16:59:18.262Z,27.48
2022-09-07T17:01:48.149Z,27.47
2022-09-07T17:04:18.930Z,27.47
2022-09-07T17:06:49.077Z,27.43
2022-09-07T17:09:18.959Z,27.44
2022-09-07T17:11:48.900Z,27.42
2022-09-07T17:14:21.243Z,27.41
2022-09-07T17:16:51.045Z,27.39
2022-09-07T17:19:29.714Z,27.39
2022-09-07T17:22:00.766Z,27.39
2022-09-07T17:24:32.184Z,27.37
2022-09-07T17:27:03.381Z,27.37
2022-09-07T17:29:37.666Z,27.34
2022-09-07T17:32:24.591Z,27.33
2022-09-07T17:34:55.493Z,27.34
2022-09-07T17:37:25.673Z,27.31
2022-09-07T17:39:56.646Z,27.18
2022-09-07T17:43:38.895Z,27.06
2022-09-07T17:45:21.168Z,26.98
2022-09-07T17:47:51.621Z,26.89
2022-09-07T17:50:21.452Z,26.78
2022-09-07T17:52:54.157Z,26.79
2022-09-07T17:55:23.960Z,26.74
2022-09-07T17:57:53.731Z,26.64
2022-09-07T18:00:26.158Z,26.63
2022-09-07T18:02:56.093Z,26.67
2022-09-07T18:05:26.043Z,26.62
2022-09-07T18:07:55.829Z,26.57
2022-09-07T18:10:26.622Z,26.53
2022-09-07T18:12:57.130Z,26.44
2022-09-07T18:15:29.483Z,26.43
2022-09-07T18:17:59.821Z,26.45
2022-09-07T18:20:29.691Z,26.48
2022-09-07T18:22:59.451Z,26.51
2022-09-07T18:25:29.326Z,26.51
2022-09-07T18:30:51.723Z,26.50
2022-09-07T18:33:21.986Z,26.48
2022-09-07T18:35:52.603Z,26.47
2022-09-07T18:38:22.446Z,26.47
2022-09-07T18:40:52.207Z,26.46
2022-09-07T18:43:22.078Z,26.45
2022-09-07T18:45:55.070Z,26.43
2022-09-07T18:48:25.022Z,26.43
2022-09-07T18:50:56.463Z,26.42
2022-09-07T18:53:26.238Z,26.42
2022-09-07T18:55:56.424Z,26.42
2022-09-07T18:58:26.289Z,26.40
2022-09-07T19:01:01.591Z,26.37
2022-09-07T19:03:31.604Z,26.37
2022-09-07T19:06:03.778Z,26.35
2022-09-07T19:08:34.288Z,26.35
2022-09-07T19:11:08.583Z,26.33
2022-09-07T19:13:39.081Z,26.32
2022-09-07T19:16:15.012Z,26.31
2022-09-07T19:18:48.270Z,26.30
2022-09-07T19:21:19.869Z,26.30
2022-09-07T19:23:57.077Z,26.29
2022-09-07T19:26:27.833Z,26.31
2022-09-07T19:29:00.364Z,26.26
2022-09-07T19:31:34.143Z,26.24
2022-09-07T19:34:05.490Z,26.23
2022-09-07T19:36:38.371Z,26.23
2022-09-07T19:39:08.604Z,26.21
2022-09-07T19:41:41.902Z,26.17
2022-09-07T19:44:11.987Z,26.15
2022-09-07T19:46:45.193Z,26.12
2022-09-07T19:49:15.211Z,26.12
2022-09-07T19:51:45.294Z,26.12
2022-09-07T19:54:15.831Z,26.08
2022-09-07T19:56:45.762Z,26.08
2022-09-07T19:59:19.597Z,26.06
2022-09-07T20:01:53.820Z,26.05
2022-09-07T20:04:24.029Z,26.04
2022-09-07T20:06:54.697Z,26.00
2022-09-07T20:09:25.687Z,25.97
2022-09-07T20:11:55.496Z,25.95
2022-09-07T20:14:25.460Z,25.92
2022-09-07T20:16:57.947Z,25.89
2022-09-07T20:19:27.680Z,25.89
2022-09-07T20:21:57.965Z,25.85
2022-09-07T20:24:27.872Z,25.83
2022-09-07T20:26:58.107Z,25.81
2022-09-07T20:29:29.049Z,25.79
2022-09-07T20:32:02.897Z,25.76
2022-09-07T20:34:33.119Z,25.73
2022-09-07T20:37:02.901Z,25.71
2022-09-07T20:39:36.995Z,25.69
2022-09-07T20:42:10.606Z,25.67
2022-09-07T20:44:40.367Z,25.65
2022-09-07T20:47:12.743Z,25.64
2022-09-07T20:49:42.477Z,25.62
2022-09-07T20:52:12.263Z,25.62
2022-09-07T20:54:42.010Z,25.61
2022-09-07T20:57:11.949Z,25.59
2022-09-07T20:59:41.699Z,25.57
2022-09-07T21:02:14.538Z,25.55
2022-09-07T21:04:45.113Z,25.52
2022-09-07T21:07:14.834Z,25.51
2022-09-07T21:09:44.612Z,25.45
2022-09-07T21:12:14.362Z,25.43
2022-09-07T21:14:45.639Z,25.42
2022-09-07T21:17:18.011Z,25.40
2022-09-07T21:19:47.900Z,25.39
2022-09-07T21:22:17.662Z,25.36
2022-09-07T21:24:47.815Z,25.35
2022-09-07T21:27:17.753Z,25.31
2022-09-07T21:29:47.532Z,25.28
2022-09-07T21:32:19.919Z,25.27
2022-09-07T21:34:49.618Z,25.25
2022-09-07T21:37:34.318Z,25.23
2022-09-07T21:40:05.855Z,25.25
2022-09-07T21:42:35.775Z,25.24
2022-09-07T21:45:07.106Z,25.24
2022-09-07T21:47:39.438Z,25.21
2022-09-07T21:50:09.934Z,25.21
2022-09-07T21:52:40.344Z,25.19
2022-09-07T21:55:11.282Z,25.16
2022-09-07T21:57:41.194Z,25.17
2022-09-07T22:00:12.038Z,25.17
2022-09-07T22:02:44.420Z,25.18
2022-09-07T22:05:14.158Z,25.17
2022-09-07T22:07:43.900Z,25.17
2022-09-07T22:10:13.947Z,25.15
2022-09-07T22:12:43.689Z,25.13
2022-09-07T22:15:13.811Z,25.12
2022-09-07T22:17:46.496Z,25.10
2022-09-07T22:20:16.254Z,25.11
2022-09-07T22:22:46.395Z,25.09
2022-09-07T22:25:16.365Z,25.06
2022-09-07T22:27:46.101Z,25.04
2022-09-07T22:30:16.362Z,25.02
2022-09-07T22:32:50.993Z,24.98
2022-09-07T22:35:21.723Z,24.99
2022-09-07T22:37:51.429Z,24.99
2022-09-07T22:40:21.174Z,24.98
2022-09-07T22:42:51.225Z,24.97
2022-09-07T22:45:20.981Z,24.94
2022-09-07T22:47:53.380Z,24.91
2022-09-07T22:50:23.211Z,24.89
2022-09-07T22:52:52.925Z,24.89
2022-09-07T22:55:22.658Z,24.87
2022-09-07T22:57:52.445Z,24.83
2022-09-07T23:00:22.339Z,24.82
2022-09-07T23:02:57.550Z,24.79
2022-09-07T23:05:27.307Z,24.80
2022-09-07T23:07:57.139Z,24.76
2022-09-07T23:10:27.102Z,24.73
2022-09-07T23:12:56.939Z,24.71
2022-09-07T23:15:26.746Z,24.70
2022-09-07T23:17:59.484Z,24.67
2022-09-07T23:20:29.335Z,24.66
2022-09-07T23:22:59.099Z,24.66
2022-09-07T23:25:29.219Z,24.61
2022-09-07T23:27:59.000Z,24.60
2022-09-07T23:30:28.734Z,24.58
2022-09-07T23:33:01.133Z,24.54
2022-09-07T23:35:30.990Z,24.55
2022-09-07T23:38:00.761Z,24.55
2022-09-07T23:40:31.884Z,24.54
2022-09-07T23:43:01.720Z,24.52
2022-09-07T23:45:31.764Z,24.50
2022-09-07T23:48:04.513Z,24.49
2022-09-07T23:50:34.274Z,24.49
2022-09-07T23:53:04.410Z,24.48
2022-09-07T23:55:34.090Z,24.47
2022-09-07T23:58:03.879Z,24.47
